sensor_id;sensor_type;location;lat;lon;timestamp;pressure;altitude;pressure_sealevel;temperature;humidity
29163;BME280;20331;53.144;8.208;2024-03-07T00:00:40;102839.09;;;6.21;91.16
29163;BME280;20331;53.144;8.208;2024-03-07T00:06:04;102835.53;;;6.13;90.59
29163;BME280;20331;53.144;8.208;2024-03-07T00:11:25;102835.63;;;6.19;90.34
29163;BME280;20331;53.144;8.208;2024-03-07T00:16:48;102843.28;;;6.15;91.22
29163;BME280;20331;53.144;8.208;2024-03-07T00:22:10;102845.81;;;6.13;91.32
29163;BME280;20331;53.144;8.208;2024-03-07T00:27:32;102838.00;;;6.08;90.98
29163;BME280;20331;53.144;8.208;2024-03-07T00:32:54;102839.81;;;6.14;90.39
29163;BME280;20331;53.144;8.208;2024-03-07T00:38:17;102838.00;;;6.08;90.61
29163;BME280;20331;53.144;8.208;2024-03-07T00:43:39;102842.16;;;6.02;90.86
29163;BME280;20331;53.144;8.208;2024-03-07T00:49:02;102838.66;;;5.98;90.83
29163;BME280;20331;53.144;8.208;2024-03-07T00:54:23;102828.41;;;6.00;92.15
29163;BME280;20331;53.144;8.208;2024-03-07T00:59:45;102826.75;;;6.02;91.80
29163;BME280;20331;53.144;8.208;2024-03-07T01:05:07;102827.72;;;6.08;90.59
29163;BME280;20331;53.144;8.208;2024-03-07T01:10:31;102831.00;;;6.01;90.40
29163;BME280;20331;53.144;8.208;2024-03-07T01:15:53;102819.63;;;5.90;91.27
29163;BME280;20331;53.144;8.208;2024-03-07T01:21:15;102829.41;;;6.08;91.46
29163;BME280;20331;53.144;8.208;2024-03-07T01:26:36;102822.38;;;5.99;90.99
29163;BME280;20331;53.144;8.208;2024-03-07T01:31:58;102822.25;;;5.93;91.71
29163;BME280;20331;53.144;8.208;2024-03-07T01:37:20;102814.25;;;5.80;92.00
29163;BME280;20331;53.144;8.208;2024-03-07T01:42:42;102825.50;;;5.85;92.21
29163;BME280;20331;53.144;8.208;2024-03-07T01:48:16;102820.41;;;5.88;92.36
29163;BME280;20331;53.144;8.208;2024-03-07T01:53:44;102817.50;;;5.73;92.90
29163;BME280;20331;53.144;8.208;2024-03-07T01:59:07;102802.94;;;5.73;92.33
29163;BME280;20331;53.144;8.208;2024-03-07T02:04:30;102800.44;;;5.75;93.42
29163;BME280;20331;53.144;8.208;2024-03-07T02:10:00;102794.97;;;5.60;92.90
29163;BME280;20331;53.144;8.208;2024-03-07T02:15:21;102782.94;;;5.59;93.49
29163;BME280;20331;53.144;8.208;2024-03-07T02:20:46;102792.16;;;5.49;92.71
29163;BME280;20331;53.144;8.208;2024-03-07T02:26:08;102798.16;;;5.50;93.82
29163;BME280;20331;53.144;8.208;2024-03-07T02:31:30;102784.41;;;5.48;94.14
29163;BME280;20331;53.144;8.208;2024-03-07T02:36:58;102790.06;;;5.33;93.73
29163;BME280;20331;53.144;8.208;2024-03-07T02:42:20;102791.44;;;5.18;93.41
29163;BME280;20331;53.144;8.208;2024-03-07T02:47:42;102791.38;;;5.15;95.11
29163;BME280;20331;53.144;8.208;2024-03-07T02:53:06;102795.38;;;5.03;94.90
29163;BME280;20331;53.144;8.208;2024-03-07T02:58:28;102798.69;;;4.99;95.37
29163;BME280;20331;53.144;8.208;2024-03-07T03:03:50;102791.69;;;4.92;95.99
29163;BME280;20331;53.144;8.208;2024-03-07T03:09:12;102797.66;;;4.93;95.74
29163;BME280;20331;53.144;8.208;2024-03-07T03:14:38;102783.75;;;4.83;95.94
29163;BME280;20331;53.144;8.208;2024-03-07T03:20:01;102791.06;;;4.68;96.38
29163;BME280;20331;53.144;8.208;2024-03-07T03:25:23;102803.44;;;4.52;97.01
29163;BME280;20331;53.144;8.208;2024-03-07T03:30:45;102797.41;;;4.50;97.60
29163;BME280;20331;53.144;8.208;2024-03-07T03:36:07;102804.72;;;4.38;98.29
29163;BME280;20331;53.144;8.208;2024-03-07T03:41:29;102800.25;;;4.29;98.32
29163;BME280;20331;53.144;8.208;2024-03-07T03:46:51;102786.03;;;4.09;98.90
29163;BME280;20331;53.144;8.208;2024-03-07T03:52:13;102802.13;;;4.05;99.89
29163;BME280;20331;53.144;8.208;2024-03-07T03:57:35;102808.97;;;4.04;100.00
29163;BME280;20331;53.144;8.208;2024-03-07T04:02:58;102809.56;;;3.97;100.00
29163;BME280;20331;53.144;8.208;2024-03-07T04:08:20;102804.16;;;3.87;100.00
29163;BME280;20331;53.144;8.208;2024-03-07T04:13:42;102808.06;;;4.04;100.00
29163;BME280;20331;53.144;8.208;2024-03-07T04:19:06;102802.06;;;3.74;100.00
29163;BME280;20331;53.144;8.208;2024-03-07T04:24:31;102802.91;;;3.73;100.00
29163;BME280;20331;53.144;8.208;2024-03-07T04:29:54;102805.91;;;3.88;100.00
29163;BME280;20331;53.144;8.208;2024-03-07T04:35:16;102802.16;;;3.77;100.00
29163;BME280;20331;53.144;8.208;2024-03-07T04:40:43;102805.53;;;3.76;100.00
29163;BME280;20331;53.144;8.208;2024-03-07T04:46:05;102804.72;;;3.77;100.00
29163;BME280;20331;53.144;8.208;2024-03-07T04:51:28;102800.88;;;3.91;100.00
29163;BME280;20331;53.144;8.208;2024-03-07T04:56:52;102808.59;;;3.92;100.00
29163;BME280;20331;53.144;8.208;2024-03-07T05:02:14;102790.16;;;4.04;100.00
29163;BME280;20331;53.144;8.208;2024-03-07T05:07:36;102798.31;;;3.91;100.00
29163;BME280;20331;53.144;8.208;2024-03-07T05:12:57;102794.53;;;4.08;100.00
29163;BME280;20331;53.144;8.208;2024-03-07T05:18:22;102803.50;;;3.94;100.00
29163;BME280;20331;53.144;8.208;2024-03-07T05:23:44;102806.69;;;4.15;100.00
29163;BME280;20331;53.144;8.208;2024-03-07T05:29:07;102806.00;;;4.21;100.00
29163;BME280;20331;53.144;8.208;2024-03-07T05:34:29;102801.63;;;4.18;100.00
29163;BME280;20331;53.144;8.208;2024-03-07T05:39:54;102798.53;;;4.28;100.00
29163;BME280;20331;53.144;8.208;2024-03-07T05:45:19;102805.19;;;4.23;100.00
29163;BME280;20331;53.144;8.208;2024-03-07T05:50:41;102814.94;;;4.36;100.00
29163;BME280;20331;53.144;8.208;2024-03-07T05:56:05;102807.50;;;4.45;100.00
29163;BME280;20331;53.144;8.208;2024-03-07T06:01:27;102815.50;;;4.56;100.00
29163;BME280;20331;53.144;8.208;2024-03-07T06:06:49;102812.16;;;4.60;100.00
29163;BME280;20331;53.144;8.208;2024-03-07T06:12:11;102817.19;;;4.55;100.00
29163;BME280;20331;53.144;8.208;2024-03-07T06:17:47;102826.72;;;4.59;100.00
29163;BME280;20331;53.144;8.208;2024-03-07T06:23:09;102830.06;;;4.58;100.00
29163;BME280;20331;53.144;8.208;2024-03-07T06:28:34;102812.59;;;4.76;100.00
29163;BME280;20331;53.144;8.208;2024-03-07T06:33:55;102824.81;;;4.85;100.00
29163;BME280;20331;53.144;8.208;2024-03-07T06:39:18;102814.78;;;4.94;100.00
29163;BME280;20331;53.144;8.208;2024-03-07T06:44:43;102812.31;;;4.98;100.00
29163;BME280;20331;53.144;8.208;2024-03-07T06:50:05;102831.63;;;4.84;100.00
29163;BME280;20331;53.144;8.208;2024-03-07T06:55:36;102829.97;;;4.86;100.00
29163;BME280;20331;53.144;8.208;2024-03-07T07:00:59;102831.88;;;4.93;100.00
29163;BME280;20331;53.144;8.208;2024-03-07T07:06:23;102827.25;;;4.80;100.00
29163;BME280;20331;53.144;8.208;2024-03-07T07:11:44;102845.94;;;4.76;100.00
29163;BME280;20331;53.144;8.208;2024-03-07T07:17:07;102832.53;;;4.86;100.00
29163;BME280;20331;53.144;8.208;2024-03-07T07:22:31;102831.94;;;4.96;100.00
29163;BME280;20331;53.144;8.208;2024-03-07T07:27:56;102830.63;;;5.12;100.00
29163;BME280;20331;53.144;8.208;2024-03-07T07:33:18;102829.00;;;5.16;100.00
29163;BME280;20331;53.144;8.208;2024-03-07T07:38:40;102814.94;;;5.36;100.00
29163;BME280;20331;53.144;8.208;2024-03-07T07:44:03;102811.69;;;5.43;100.00
29163;BME280;20331;53.144;8.208;2024-03-07T07:49:24;102810.72;;;5.38;100.00
29163;BME280;20331;53.144;8.208;2024-03-07T07:54:46;102807.44;;;5.43;100.00
29163;BME280;20331;53.144;8.208;2024-03-07T08:00:12;102793.56;;;5.37;100.00
29163;BME280;20331;53.144;8.208;2024-03-07T08:05:43;102802.31;;;5.45;100.00
29163;BME280;20331;53.144;8.208;2024-03-07T08:11:06;102787.97;;;5.53;100.00
29163;BME280;20331;53.144;8.208;2024-03-07T08:16:29;102791.69;;;5.67;100.00
29163;BME280;20331;53.144;8.208;2024-03-07T08:21:51;102787.81;;;5.84;100.00
29163;BME280;20331;53.144;8.208;2024-03-07T08:27:13;102787.69;;;5.79;100.00
29163;BME280;20331;53.144;8.208;2024-03-07T08:32:35;102780.28;;;5.91;100.00
29163;BME280;20331;53.144;8.208;2024-03-07T08:38:00;102777.78;;;5.96;100.00
29163;BME280;20331;53.144;8.208;2024-03-07T08:43:22;102783.09;;;6.03;100.00
29163;BME280;20331;53.144;8.208;2024-03-07T08:48:43;102759.25;;;6.12;100.00
29163;BME280;20331;53.144;8.208;2024-03-07T08:54:05;102761.09;;;6.19;100.00
29163;BME280;20331;53.144;8.208;2024-03-07T08:59:27;102755.31;;;6.29;100.00
29163;BME280;20331;53.144;8.208;2024-03-07T09:04:49;102750.13;;;6.26;100.00
29163;BME280;20331;53.144;8.208;2024-03-07T09:10:11;102752.06;;;6.39;100.00
29163;BME280;20331;53.144;8.208;2024-03-07T09:15:33;102765.19;;;6.54;100.00
29163;BME280;20331;53.144;8.208;2024-03-07T09:20:55;102761.81;;;6.57;100.00
29163;BME280;20331;53.144;8.208;2024-03-07T09:26:17;102757.56;;;6.59;100.00
29163;BME280;20331;53.144;8.208;2024-03-07T09:31:39;102753.19;;;6.53;100.00
29163;BME280;20331;53.144;8.208;2024-03-07T09:37:02;102742.88;;;6.52;100.00
29163;BME280;20331;53.144;8.208;2024-03-07T09:42:25;102749.94;;;6.65;100.00
29163;BME280;20331;53.144;8.208;2024-03-07T09:47:49;102746.81;;;6.81;100.00
29163;BME280;20331;53.144;8.208;2024-03-07T09:53:13;102732.31;;;6.87;100.00
29163;BME280;20331;53.144;8.208;2024-03-07T09:58:35;102741.22;;;7.07;100.00
29163;BME280;20331;53.144;8.208;2024-03-07T10:04:01;102734.41;;;7.12;100.00
29163;BME280;20331;53.144;8.208;2024-03-07T10:09:33;102738.84;;;7.20;99.58
29163;BME280;20331;53.144;8.208;2024-03-07T10:14:57;102740.63;;;7.25;99.23
29163;BME280;20331;53.144;8.208;2024-03-07T10:20:20;102740.84;;;7.42;99.15
29163;BME280;20331;53.144;8.208;2024-03-07T10:25:46;102746.31;;;7.64;97.79
29163;BME280;20331;53.144;8.208;2024-03-07T10:31:08;102741.06;;;7.57;97.72
29163;BME280;20331;53.144;8.208;2024-03-07T10:36:33;102736.88;;;7.65;96.83
29163;BME280;20331;53.144;8.208;2024-03-07T10:41:57;102745.53;;;7.70;96.84
29163;BME280;20331;53.144;8.208;2024-03-07T10:47:26;102736.88;;;7.63;95.89
29163;BME280;20331;53.144;8.208;2024-03-07T10:52:59;102736.66;;;7.50;96.28
29163;BME280;20331;53.144;8.208;2024-03-07T10:58:37;102737.53;;;7.49;95.77
29163;BME280;20331;53.144;8.208;2024-03-07T11:04:04;102734.13;;;7.53;95.45
29163;BME280;20331;53.144;8.208;2024-03-07T11:09:27;102724.00;;;7.66;95.31
29163;BME280;20331;53.144;8.208;2024-03-07T11:14:56;102714.63;;;7.73;94.46
29163;BME280;20331;53.144;8.208;2024-03-07T11:20:26;102723.31;;;7.78;94.79
29163;BME280;20331;53.144;8.208;2024-03-07T11:25:48;102717.97;;;7.66;93.39
29163;BME280;20331;53.144;8.208;2024-03-07T11:31:14;102717.88;;;7.57;93.67
29163;BME280;20331;53.144;8.208;2024-03-07T11:36:42;102712.00;;;7.67;94.16
29163;BME280;20331;53.144;8.208;2024-03-07T11:42:04;102706.84;;;7.65;93.58
29163;BME280;20331;53.144;8.208;2024-03-07T11:47:36;102712.97;;;7.76;94.25
29163;BME280;20331;53.144;8.208;2024-03-07T11:53:01;102705.25;;;7.78;95.23
29163;BME280;20331;53.144;8.208;2024-03-07T11:58:24;102692.97;;;7.57;92.28
29163;BME280;20331;53.144;8.208;2024-03-07T12:03:47;102700.03;;;7.72;94.39
29163;BME280;20331;53.144;8.208;2024-03-07T12:09:17;102701.81;;;7.76;92.51
29163;BME280;20331;53.144;8.208;2024-03-07T12:14:45;102694.91;;;7.75;92.49
29163;BME280;20331;53.144;8.208;2024-03-07T12:20:07;102693.97;;;7.67;92.82
29163;BME280;20331;53.144;8.208;2024-03-07T12:25:47;102686.19;;;7.64;91.82
29163;BME280;20331;53.144;8.208;2024-03-07T12:31:09;102678.50;;;7.65;92.00
29163;BME280;20331;53.144;8.208;2024-03-07T12:36:38;102674.28;;;7.75;93.12
29163;BME280;20331;53.144;8.208;2024-03-07T12:42:09;102672.50;;;7.68;93.36
29163;BME280;20331;53.144;8.208;2024-03-07T12:47:34;102673.28;;;7.64;92.95
29163;BME280;20331;53.144;8.208;2024-03-07T12:52:58;102666.41;;;7.60;92.08
29163;BME280;20331;53.144;8.208;2024-03-07T12:58:20;102659.47;;;7.54;94.41
29163;BME280;20331;53.144;8.208;2024-03-07T13:03:44;102656.84;;;7.51;94.23
29163;BME280;20331;53.144;8.208;2024-03-07T13:09:09;102652.53;;;7.49;95.22
29163;BME280;20331;53.144;8.208;2024-03-07T13:14:35;102653.44;;;7.54;94.95
29163;BME280;20331;53.144;8.208;2024-03-07T13:19:57;102646.56;;;7.53;95.93
29163;BME280;20331;53.144;8.208;2024-03-07T13:25:25;102640.66;;;7.60;94.02
29163;BME280;20331;53.144;8.208;2024-03-07T13:30:47;102635.53;;;7.66;94.39
29163;BME280;20331;53.144;8.208;2024-03-07T13:36:11;102621.56;;;7.46;91.92
29163;BME280;20331;53.144;8.208;2024-03-07T13:41:35;102626.78;;;7.49;93.21
29163;BME280;20331;53.144;8.208;2024-03-07T13:46:58;102604.50;;;7.54;93.71
29163;BME280;20331;53.144;8.208;2024-03-07T13:52:21;102615.63;;;7.53;94.75
29163;BME280;20331;53.144;8.208;2024-03-07T13:57:49;102594.19;;;7.51;94.21
29163;BME280;20331;53.144;8.208;2024-03-07T14:03:19;102614.59;;;7.36;93.57
29163;BME280;20331;53.144;8.208;2024-03-07T14:31:49;102578.16;;;7.02;95.17
29163;BME280;20331;53.144;8.208;2024-03-07T14:37:45;102577.38;;;7.11;95.17
29163;BME280;20331;53.144;8.208;2024-03-07T14:43:08;102575.69;;;7.11;97.80
29163;BME280;20331;53.144;8.208;2024-03-07T14:48:29;102567.06;;;7.08;97.81
29163;BME280;20331;53.144;8.208;2024-03-07T14:53:52;102562.91;;;7.18;97.84
29163;BME280;20331;53.144;8.208;2024-03-07T14:59:17;102555.03;;;7.07;96.11
29163;BME280;20331;53.144;8.208;2024-03-07T15:04:40;102561.06;;;7.10;95.89
29163;BME280;20331;53.144;8.208;2024-03-07T15:10:06;102552.44;;;7.04;95.54
29163;BME280;20331;53.144;8.208;2024-03-07T15:15:32;102543.91;;;7.09;96.11
29163;BME280;20331;53.144;8.208;2024-03-07T15:20:54;102544.78;;;7.10;95.48
29163;BME280;20331;53.144;8.208;2024-03-07T15:26:16;102544.72;;;7.07;95.30
29163;BME280;20331;53.144;8.208;2024-03-07T15:31:39;102522.44;;;7.06;96.06
29163;BME280;20331;53.144;8.208;2024-03-07T15:37:02;102517.28;;;7.04;95.59
29163;BME280;20331;53.144;8.208;2024-03-07T15:42:25;102524.00;;;6.93;95.49
29163;BME280;20331;53.144;8.208;2024-03-07T15:47:56;102517.22;;;7.01;96.83
29163;BME280;20331;53.144;8.208;2024-03-07T15:53:26;102511.31;;;7.08;96.97
29163;BME280;20331;53.144;8.208;2024-03-07T15:58:48;102518.94;;;6.99;95.95
29163;BME280;20331;53.144;8.208;2024-03-07T16:04:11;102528.38;;;7.00;93.96
29163;BME280;20331;53.144;8.208;2024-03-07T16:09:33;102516.19;;;6.87;95.68
29163;BME280;20331;53.144;8.208;2024-03-07T16:14:55;102511.94;;;6.89;93.66
29163;BME280;20331;53.144;8.208;2024-03-07T16:20:21;102504.31;;;6.95;94.68
29163;BME280;20331;53.144;8.208;2024-03-07T16:25:43;102506.72;;;6.85;94.34
29163;BME280;20331;53.144;8.208;2024-03-07T16:31:05;102496.72;;;7.07;93.16
29163;BME280;20331;53.144;8.208;2024-03-07T16:36:30;102490.63;;;6.99;93.36
29163;BME280;20331;53.144;8.208;2024-03-07T16:41:52;102491.53;;;7.04;93.67
29163;BME280;20331;53.144;8.208;2024-03-07T16:47:14;102490.59;;;6.98;93.35
29163;BME280;20331;53.144;8.208;2024-03-07T16:52:36;102476.81;;;6.91;94.89
29163;BME280;20331;53.144;8.208;2024-03-07T16:57:58;102475.91;;;6.86;93.75
29163;BME280;20331;53.144;8.208;2024-03-07T17:03:24;102467.38;;;6.92;94.35
29163;BME280;20331;53.144;8.208;2024-03-07T17:08:46;102474.19;;;6.88;94.14
29163;BME280;20331;53.144;8.208;2024-03-07T17:14:09;102480.09;;;6.81;94.47
29163;BME280;20331;53.144;8.208;2024-03-07T17:19:31;102486.81;;;6.70;94.05
29163;BME280;20331;53.144;8.208;2024-03-07T17:24:53;102479.19;;;6.75;93.57
29163;BME280;20331;53.144;8.208;2024-03-07T17:30:25;102472.91;;;6.53;94.42
29163;BME280;20331;53.144;8.208;2024-03-07T17:35:47;102479.66;;;6.47;94.62
29163;BME280;20331;53.144;8.208;2024-03-07T17:41:11;102481.31;;;6.43;93.38
29163;BME280;20331;53.144;8.208;2024-03-07T17:46:34;102481.38;;;6.46;93.97
29163;BME280;20331;53.144;8.208;2024-03-07T17:51:55;102475.34;;;6.44;94.67
29163;BME280;20331;53.144;8.208;2024-03-07T17:57:19;102471.88;;;6.41;94.22
29163;BME280;20331;53.144;8.208;2024-03-07T18:02:45;102478.63;;;6.33;93.40
29163;BME280;20331;53.144;8.208;2024-03-07T18:08:09;102474.81;;;6.08;95.43
29163;BME280;20331;53.144;8.208;2024-03-07T18:13:51;102468.84;;;6.09;94.45
29163;BME280;20331;53.144;8.208;2024-03-07T18:19:15;102473.09;;;6.07;94.03
29163;BME280;20331;53.144;8.208;2024-03-07T18:24:38;102470.53;;;6.07;94.44
29163;BME280;20331;53.144;8.208;2024-03-07T18:30:00;102472.19;;;6.02;94.54
29163;BME280;20331;53.144;8.208;2024-03-07T18:35:33;102466.97;;;5.99;94.62
29163;BME280;20331;53.144;8.208;2024-03-07T18:40:55;102457.31;;;5.84;95.51
29163;BME280;20331;53.144;8.208;2024-03-07T18:46:17;102470.09;;;5.80;96.12
29163;BME280;20331;53.144;8.208;2024-03-07T18:51:39;102466.53;;;5.73;95.37
29163;BME280;20331;53.144;8.208;2024-03-07T18:57:02;102470.00;;;5.77;95.85
29163;BME280;20331;53.144;8.208;2024-03-07T19:02:28;102464.94;;;5.80;94.98
29163;BME280;20331;53.144;8.208;2024-03-07T19:07:51;102456.53;;;5.87;95.26
29163;BME280;20331;53.144;8.208;2024-03-07T19:13:16;102453.75;;;5.76;94.71
29163;BME280;20331;53.144;8.208;2024-03-07T19:18:38;102452.84;;;5.73;95.05
29163;BME280;20331;53.144;8.208;2024-03-07T19:24:01;102443.56;;;5.82;94.20
29163;BME280;20331;53.144;8.208;2024-03-07T19:29:23;102437.59;;;5.82;94.18
29163;BME280;20331;53.144;8.208;2024-03-07T19:34:45;102439.34;;;5.83;93.92
29163;BME280;20331;53.144;8.208;2024-03-07T19:40:07;102434.03;;;5.74;94.51
29163;BME280;20331;53.144;8.208;2024-03-07T19:45:31;102435.69;;;5.70;93.19
29163;BME280;20331;53.144;8.208;2024-03-07T19:50:56;102431.16;;;5.56;94.17
29163;BME280;20331;53.144;8.208;2024-03-07T19:56:20;102436.31;;;5.57;94.80
29163;BME280;20331;53.144;8.208;2024-03-07T20:01:45;102442.25;;;5.53;95.70
29163;BME280;20331;53.144;8.208;2024-03-07T20:07:07;102430.28;;;5.54;94.83
29163;BME280;20331;53.144;8.208;2024-03-07T20:12:36;102433.59;;;5.47;94.76
29163;BME280;20331;53.144;8.208;2024-03-07T20:17:59;102421.50;;;5.41;94.83
29163;BME280;20331;53.144;8.208;2024-03-07T20:23:21;102427.38;;;5.34;94.69
29163;BME280;20331;53.144;8.208;2024-03-07T20:28:43;102420.38;;;5.26;94.58
29163;BME280;20331;53.144;8.208;2024-03-07T20:34:05;102426.38;;;5.25;95.07
29163;BME280;20331;53.144;8.208;2024-03-07T20:39:27;102423.69;;;5.20;96.13
29163;BME280;20331;53.144;8.208;2024-03-07T20:44:51;102422.91;;;5.23;94.21
29163;BME280;20331;53.144;8.208;2024-03-07T20:50:14;102414.09;;;5.08;94.94
29163;BME280;20331;53.144;8.208;2024-03-07T20:55:37;102412.34;;;5.07;95.42
29163;BME280;20331;53.144;8.208;2024-03-07T21:01:03;102410.69;;;5.09;95.38
29163;BME280;20331;53.144;8.208;2024-03-07T21:06:25;102404.59;;;5.03;96.63
29163;BME280;20331;53.144;8.208;2024-03-07T21:11:47;102405.41;;;5.00;96.82
29163;BME280;20331;53.144;8.208;2024-03-07T21:17:09;102406.97;;;4.92;96.25
29163;BME280;20331;53.144;8.208;2024-03-07T21:22:33;102393.91;;;4.80;97.05
29163;BME280;20331;53.144;8.208;2024-03-07T21:27:55;102399.94;;;4.82;96.34
29163;BME280;20331;53.144;8.208;2024-03-07T21:33:17;102393.16;;;4.84;98.38
29163;BME280;20331;53.144;8.208;2024-03-07T21:38:39;102390.56;;;4.83;97.33
29163;BME280;20331;53.144;8.208;2024-03-07T21:44:01;102387.84;;;4.75;97.51
29163;BME280;20331;53.144;8.208;2024-03-07T21:49:23;102380.22;;;4.80;96.95
29163;BME280;20331;53.144;8.208;2024-03-07T21:54:45;102380.94;;;4.71;97.81
29163;BME280;20331;53.144;8.208;2024-03-07T22:00:12;102373.97;;;4.66;97.01
29163;BME280;20331;53.144;8.208;2024-03-07T22:05:38;102371.38;;;4.63;97.44
29163;BME280;20331;53.144;8.208;2024-03-07T22:11:00;102362.09;;;4.69;96.47
29163;BME280;20331;53.144;8.208;2024-03-07T22:16:22;102368.97;;;4.70;98.40
29163;BME280;20331;53.144;8.208;2024-03-07T22:21:44;102363.88;;;4.73;97.20
29163;BME280;20331;53.144;8.208;2024-03-07T22:27:06;102354.41;;;4.71;97.43
29163;BME280;20331;53.144;8.208;2024-03-07T22:32:28;102343.81;;;4.53;97.21
29163;BME280;20331;53.144;8.208;2024-03-07T22:37:50;102361.03;;;4.60;98.15
29163;BME280;20331;53.144;8.208;2024-03-07T22:43:14;102360.13;;;4.56;97.97
29163;BME280;20331;53.144;8.208;2024-03-07T22:48:35;102353.31;;;4.58;98.32
29163;BME280;20331;53.144;8.208;2024-03-07T22:53:58;102352.44;;;4.56;98.06
29163;BME280;20331;53.144;8.208;2024-03-07T23:04:20;102335.81;;;4.36;98.90
29163;BME280;20331;53.144;8.208;2024-03-07T23:09:46;102334.81;;;4.28;98.83
29163;BME280;20331;53.144;8.208;2024-03-07T23:15:09;102327.94;;;4.26;98.61
29163;BME280;20331;53.144;8.208;2024-03-07T23:20:31;102328.06;;;4.32;97.87
29163;BME280;20331;53.144;8.208;2024-03-07T23:25:54;102327.00;;;4.22;97.99
29163;BME280;20331;53.144;8.208;2024-03-07T23:31:15;102313.25;;;4.17;98.40
29163;BME280;20331;53.144;8.208;2024-03-07T23:36:38;102319.09;;;4.10;98.19
29163;BME280;20331;53.144;8.208;2024-03-07T23:42:00;102317.16;;;4.00;98.65
29163;BME280;20331;53.144;8.208;2024-03-07T23:47:23;102327.22;;;3.91;99.38
29163;BME280;20331;53.144;8.208;2024-03-07T23:52:45;102319.72;;;4.00;98.34
29163;BME280;20331;53.144;8.208;2024-03-07T23:58:07;102322.88;;;3.88;98.63
